Time;durP1;ratioP1;P1;durP2;ratioP2;P2;SDS_P1;SDS_P2;PMS_P1;PMS_P2;Temp;Humidity;BMP_temperature;BMP_pressure;BME280_temperature;BME280_humidity;BME280_pressure;Samples;Min_cycle;Max_cycle;Signal;HPM_P1;HPM_P2
2023/05/25 00:00:41;;;;;;;0.30;0.30;;;;;;;9.56;nan;101063.72;4981063;28;20034;-82
2023/05/25 00:03:08;;;;;;;0.20;0.20;;;;;;;9.50;nan;101061.56;4975018;28;20042;-81
2023/05/25 00:05:34;;;;;;;0.20;0.20;;;;;;;9.50;nan;101058.94;4980709;28;20053;-82
2023/05/25 00:08:00;;;;;;;0.30;0.30;;;;;;;9.46;nan;101061.97;4985770;28;20035;-82
2023/05/25 00:10:25;;;;;;;0.30;0.30;;;;;;;9.43;nan;101068.34;4977771;28;20713;-80
2023/05/25 00:12:50;;;;;;;0.30;0.30;;;;;;;9.47;nan;101064.50;4981708;28;20089;-82
2023/05/25 00:15:16;;;;;;;0.30;0.30;;;;;;;9.44;nan;101066.53;4968235;28;20084;-82
2023/05/25 00:17:41;;;;;;;0.30;0.30;;;;;;;9.40;nan;101062.50;4969005;28;20043;-82
2023/05/25 00:20:07;;;;;;;0.30;0.30;;;;;;;9.40;nan;101067.78;4983569;28;20472;-82
2023/05/25 00:22:36;;;;;;;0.30;0.30;;;;;;;9.33;nan;101064.84;4970049;28;20058;-81
2023/05/25 00:25:02;;;;;;;0.30;0.30;;;;;;;9.38;nan;101065.28;4975681;28;20038;-82
2023/05/25 00:27:28;;;;;;;0.30;0.30;;;;;;;9.41;nan;101062.38;4973625;28;20034;-82
2023/05/25 00:29:54;;;;;;;0.20;0.20;;;;;;;9.52;nan;101057.00;4972182;28;20035;-82
2023/05/25 00:32:19;;;;;;;0.30;0.30;;;;;;;9.52;nan;101059.66;4971581;28;20451;-82
2023/05/25 00:34:45;;;;;;;0.22;0.22;;;;;;;9.51;nan;101055.34;4979391;28;20032;-82
2023/05/25 00:37:10;;;;;;;0.30;0.30;;;;;;;9.49;nan;101052.00;4990958;28;20034;-82
2023/05/25 00:39:35;;;;;;;0.30;0.30;;;;;;;9.56;nan;101053.16;4990080;28;20388;-82
2023/05/25 00:42:01;;;;;;;0.30;0.30;;;;;;;9.66;nan;101053.19;4974159;28;20126;-82
2023/05/25 00:44:27;;;;;;;0.20;0.20;;;;;;;9.70;nan;101059.88;4978506;28;20118;-83
2023/05/25 00:46:52;;;;;;;0.30;0.30;;;;;;;9.73;nan;101056.13;4985463;28;20046;-82
2023/05/25 00:49:19;;;;;;;0.20;0.20;;;;;;;9.74;nan;101057.78;4987549;28;20023;-82
2023/05/25 00:51:46;;;;;;;0.30;0.30;;;;;;;9.70;nan;101057.25;5031877;28;20037;-82
2023/05/25 00:54:15;;;;;;;0.30;0.30;;;;;;;9.68;nan;101061.81;4987451;28;20038;-82
2023/05/25 00:56:45;;;;;;;0.30;0.30;;;;;;;9.64;nan;101063.03;4972195;28;20065;-82
2023/05/25 00:59:16;;;;;;;0.30;0.30;;;;;;;9.70;nan;101065.16;4980601;28;20038;-82
2023/05/25 01:01:43;;;;;;;;;;;;;;;9.70;nan;101070.44;4971802;28;20403;-82
2023/05/25 01:04:12;;;;;;;0.28;0.28;;;;;;;9.72;nan;101071.13;4970313;28;20015;-82
2023/05/25 01:06:38;;;;;;;0.30;0.30;;;;;;;9.73;nan;101072.81;4971240;28;20483;-82
2023/05/25 01:09:07;;;;;;;0.30;0.30;;;;;;;9.70;nan;101075.72;4980697;28;20038;-82
2023/05/25 01:11:41;;;;;;;0.30;0.30;;;;;;;9.66;nan;101076.94;4993902;28;20038;-82
2023/05/25 01:14:07;;;;;;;0.25;0.25;;;;;;;9.61;nan;101075.69;4978356;28;20070;-82
2023/05/25 01:16:34;;;;;;;0.30;0.30;;;;;;;9.60;nan;101072.19;4977384;28;20089;-82
2023/05/25 01:18:59;;;;;;;0.30;0.30;;;;;;;9.54;nan;101076.19;4994078;28;20045;-82
2023/05/25 01:21:54;;;;;;;0.20;0.20;;;;;;;9.47;nan;101074.22;4995074;28;20050;-82
2023/05/25 01:24:29;;;;;;;0.22;0.22;;;;;;;9.44;nan;101075.31;4988429;28;20045;-81
2023/05/25 01:27:02;;;;;;;0.30;0.30;;;;;;;9.42;nan;101086.97;4992815;28;20102;-82
2023/05/25 01:29:31;;;;;;;0.20;0.20;;;;;;;9.38;nan;101085.56;4991853;28;20092;-82
2023/05/25 01:31:57;;;;;;;0.20;0.20;;;;;;;9.26;nan;101077.72;4991731;28;20452;-83
2023/05/25 01:34:23;;;;;;;0.30;0.30;;;;;;;9.21;nan;101084.34;4978806;28;20063;-82
2023/05/25 01:36:49;;;;;;;0.30;0.30;;;;;;;9.14;nan;101084.84;4990282;28;20499;-82
2023/05/25 01:39:15;;;;;;;0.30;0.30;;;;;;;9.06;nan;101082.03;4994253;28;20064;-83
2023/05/25 01:41:40;;;;;;;0.28;0.28;;;;;;;9.04;nan;101083.97;4994954;28;20038;-82
2023/05/25 01:44:06;;;;;;;0.30;0.30;;;;;;;9.13;nan;101087.63;4991116;28;20050;-82
2023/05/25 01:46:38;;;;;;;0.30;0.30;;;;;;;9.24;nan;101084.91;4988927;28;20034;-82
2023/05/25 01:49:28;;;;;;;0.30;0.30;;;;;;;9.27;nan;101089.09;4998898;28;20034;-82
2023/05/25 01:52:21;;;;;;;0.30;0.30;;;;;;;9.22;nan;101096.56;5004795;28;20045;-82
2023/05/25 01:54:51;;;;;;;0.30;0.30;;;;;;;9.17;nan;101083.75;4988849;28;20045;-81
2023/05/25 01:57:18;;;;;;;0.30;0.30;;;;;;;9.12;nan;101086.78;4987745;28;20504;-81
2023/05/25 01:59:45;;;;;;;0.20;0.20;;;;;;;9.07;nan;101090.78;4988609;28;20042;-81
2023/05/25 02:02:13;;;;;;;0.30;0.30;;;;;;;9.03;nan;101097.25;4990673;28;20034;-81
2023/05/25 02:04:40;;;;;;;0.30;0.30;;;;;;;8.94;nan;101093.59;4990385;28;20034;-81
2023/05/25 02:07:06;;;;;;;0.30;0.30;;;;;;;8.87;nan;101085.38;4989357;28;20558;-81
2023/05/25 02:09:31;;;;;;;0.30;0.30;;;;;;;8.81;nan;101085.03;4992601;28;20026;-82
2023/05/25 02:11:56;;;;;;;0.30;0.30;;;;;;;8.79;nan;101092.22;5009800;28;20064;-81
2023/05/25 02:14:22;;;;;;;0.20;0.20;;;;;;;8.78;nan;101086.13;5024162;28;20112;-81
2023/05/25 02:16:47;;;;;;;0.30;0.30;;;;;;;8.78;nan;101091.38;5008456;28;20553;-81
2023/05/25 02:19:13;;;;;;;0.30;0.30;;;;;;;8.76;nan;101088.03;5009748;28;20033;-81
2023/05/25 02:21:40;;;;;;;0.30;0.30;;;;;;;8.76;nan;101093.31;5009555;28;20049;-81
2023/05/25 02:24:08;;;;;;;0.30;0.30;;;;;;;8.81;nan;101088.50;5009061;28;20090;-81
2023/05/25 02:26:34;;;;;;;0.20;0.20;;;;;;;8.88;nan;101097.56;5000905;28;20029;-81
2023/05/25 02:29:00;;;;;;;0.30;0.30;;;;;;;8.90;nan;101093.00;4989386;28;20710;-81
2023/05/25 02:31:26;;;;;;;0.30;0.30;;;;;;;9.01;nan;101097.41;4988925;28;20520;-81
2023/05/25 02:33:52;;;;;;;0.28;0.28;;;;;;;9.05;nan;101090.91;4988816;28;20085;-81
2023/05/25 02:36:17;;;;;;;0.30;0.30;;;;;;;9.07;nan;101091.59;4972599;28;20031;-81
2023/05/25 02:38:42;;;;;;;0.30;0.30;;;;;;;9.13;nan;101085.81;4970490;28;20129;-81
2023/05/25 02:41:08;;;;;;;0.30;0.30;;;;;;;9.16;nan;101086.53;4973177;28;20127;-81
2023/05/25 02:43:33;;;;;;;0.30;0.30;;;;;;;9.11;nan;101079.00;4972869;28;20047;-82
2023/05/25 02:45:58;;;;;;;0.30;0.30;;;;;;;9.11;nan;101079.84;4977074;28;20031;-81
2023/05/25 02:48:23;;;;;;;0.30;0.30;;;;;;;9.10;nan;101078.16;4993673;28;20353;-81
2023/05/25 02:50:49;;;;;;;0.30;0.30;;;;;;;9.11;nan;101069.28;5018306;28;20117;-81
2023/05/25 02:53:14;;;;;;;0.30;0.30;;;;;;;9.18;nan;101074.06;5003930;28;20278;-81
2023/05/25 02:55:42;;;;;;;0.30;0.30;;;;;;;9.17;nan;101072.38;4979181;28;20289;-81
2023/05/25 02:58:07;;;;;;;0.30;0.30;;;;;;;9.12;nan;101073.59;4979137;28;20043;-82
2023/05/25 03:00:32;;;;;;;0.25;0.25;;;;;;;9.11;nan;101079.84;4980617;28;20027;-81
2023/05/25 03:02:58;;;;;;;0.30;0.30;;;;;;;9.02;nan;101080.59;4973909;28;20026;-81
2023/05/25 03:05:23;;;;;;;0.30;0.30;;;;;;;8.92;nan;101083.19;4988798;28;20030;-81
2023/05/25 03:07:48;;;;;;;0.30;0.30;;;;;;;8.93;nan;101091.91;4990336;28;20030;-81
2023/05/25 03:10:13;;;;;;;0.30;0.30;;;;;;;8.86;nan;101094.22;5013891;28;20277;-81
2023/05/25 03:12:39;;;;;;;0.30;0.30;;;;;;;8.79;nan;101093.06;5023831;28;20273;-81
2023/05/25 03:15:04;;;;;;;0.30;0.30;;;;;;;8.71;nan;101092.84;5005540;28;20034;-81
2023/05/25 03:17:30;;;;;;;0.30;0.30;;;;;;;8.63;nan;101088.22;4987577;28;20284;-81
2023/05/25 03:19:55;;;;;;;0.27;0.27;;;;;;;8.58;nan;101100.09;4987868;28;20030;-81
2023/05/25 03:22:20;;;;;;;0.30;0.30;;;;;;;8.54;nan;101102.16;4988274;28;20415;-81
2023/05/25 03:24:45;;;;;;;0.30;0.30;;;;;;;8.50;nan;101095.44;4989256;28;20065;-81
2023/05/25 03:27:11;;;;;;;0.30;0.30;;;;;;;8.46;nan;101094.88;4988666;28;20369;-82
2023/05/25 03:29:36;;;;;;;0.30;0.30;;;;;;;8.41;nan;101085.63;4987597;28;20035;-81
2023/05/25 03:32:01;;;;;;;0.30;0.30;;;;;;;8.39;nan;101082.25;4987228;28;20049;-81
2023/05/25 03:34:28;;;;;;;0.30;0.30;;;;;;;8.38;nan;101091.13;4987467;28;20038;-81
2023/05/25 03:36:53;;;;;;;0.30;0.30;;;;;;;8.48;nan;101095.56;4987314;28;20045;-82
2023/05/25 03:39:20;;;;;;;0.30;0.30;;;;;;;8.55;nan;101095.91;4976344;28;20039;-82
2023/05/25 03:41:46;;;;;;;0.30;0.30;;;;;;;8.55;nan;101092.44;4976226;28;20042;-83
2023/05/25 03:44:11;;;;;;;0.30;0.30;;;;;;;8.61;nan;101107.75;4975126;28;20039;-83
2023/05/25 03:46:37;;;;;;;0.30;0.30;;;;;;;8.61;nan;101100.69;4986151;28;20031;-82
2023/05/25 03:49:03;;;;;;;0.30;0.30;;;;;;;8.61;nan;101110.41;4999274;28;20717;-83
2023/05/25 03:51:28;;;;;;;0.30;0.30;;;;;;;8.56;nan;101107.31;5006206;28;20030;-82
2023/05/25 03:53:53;;;;;;;0.30;0.30;;;;;;;8.56;nan;101113.41;4991601;28;20138;-82
2023/05/25 03:56:19;;;;;;;0.30;0.30;;;;;;;8.56;nan;101126.59;4987155;28;20041;-82
2023/05/25 03:58:44;;;;;;;0.30;0.30;;;;;;;8.57;nan;101130.06;4986849;28;20057;-82
2023/05/25 04:01:11;;;;;;;0.30;0.30;;;;;;;8.58;nan;101127.31;4990629;28;20034;-82
2023/05/25 04:03:36;;;;;;;0.30;0.30;;;;;;;8.61;nan;101134.13;4981201;28;20061;-82
2023/05/25 04:06:01;;;;;;;0.30;0.30;;;;;;;8.61;nan;101134.13;4989449;28;20073;-83
2023/05/25 04:08:27;;;;;;;0.30;0.30;;;;;;;8.66;nan;101138.06;4990564;28;20030;-82
2023/05/25 04:10:53;;;;;;;0.25;0.25;;;;;;;8.69;nan;101137.78;4990380;28;20045;-82
2023/05/25 04:13:18;;;;;;;0.30;0.30;;;;;;;8.77;nan;101138.97;4990148;28;20446;-82
2023/05/25 04:15:43;;;;;;;0.30;0.30;;;;;;;8.79;nan;101132.59;4990086;28;20092;-82
2023/05/25 04:18:08;;;;;;;0.30;0.30;;;;;;;8.84;nan;101140.13;4990872;28;20791;-82
2023/05/25 04:20:34;;;;;;;0.30;0.30;;;;;;;8.88;nan;101145.03;4991418;28;20110;-82
2023/05/25 04:23:00;;;;;;;0.30;0.30;;;;;;;8.94;nan;101138.44;4987909;28;20026;-82
2023/05/25 04:25:25;;;;;;;0.30;0.30;;;;;;;8.97;nan;101142.63;4975069;28;20034;-82
2023/05/25 04:27:52;;;;;;;0.30;0.30;;;;;;;8.99;nan;101146.81;4985100;28;20691;-83
2023/05/25 04:30:17;;;;;;;0.30;0.30;;;;;;;8.98;nan;101152.22;4983109;28;20050;-82
2023/05/25 04:32:44;;;;;;;0.30;0.30;;;;;;;9.00;nan;101148.47;4970185;28;20046;-82
2023/05/25 04:35:09;;;;;;;0.30;0.30;;;;;;;9.07;nan;101148.81;4987678;28;20042;-83
2023/05/25 04:37:35;;;;;;;0.30;0.30;;;;;;;9.13;nan;101151.78;4990193;28;20039;-83
2023/05/25 04:40:05;;;;;;;0.30;0.30;;;;;;;9.17;nan;101155.00;4990476;28;20118;-82
2023/05/25 04:42:31;;;;;;;0.30;0.30;;;;;;;9.25;nan;101149.09;4980446;28;20108;-83
2023/05/25 04:44:57;;;;;;;0.22;0.22;;;;;;;9.33;nan;101158.03;4981843;28;20043;-83
2023/05/25 04:47:23;;;;;;;0.30;0.30;;;;;;;9.42;nan;101152.97;4990656;28;20444;-83
2023/05/25 04:49:49;;;;;;;0.30;0.30;;;;;;;9.50;nan;101164.53;5011323;28;20034;-83
2023/05/25 04:52:14;;;;;;;0.30;0.30;;;;;;;9.59;nan;101160.28;5011265;28;20042;-82
2023/05/25 04:54:40;;;;;;;0.30;0.30;;;;;;;9.66;nan;101155.34;4988239;28;20034;-82
2023/05/25 04:57:06;;;;;;;0.30;0.30;;;;;;;9.75;nan;101155.38;4994304;28;20030;-82
2023/05/25 04:59:31;;;;;;;0.30;0.30;;;;;;;9.79;nan;101163.88;4983954;28;20039;-83
2023/05/25 05:01:56;;;;;;;0.30;0.30;;;;;;;9.85;nan;101151.97;4972463;28;20180;-83
2023/05/25 05:04:21;;;;;;;0.30;0.30;;;;;;;9.92;nan;101159.22;4971470;28;20039;-82
2023/05/25 05:06:47;;;;;;;0.20;0.20;;;;;;;10.09;nan;101159.56;4972359;28;20286;-82
2023/05/25 05:09:12;;;;;;;0.30;0.30;;;;;;;10.18;nan;101164.06;4983992;28;20038;-82
2023/05/25 05:11:38;;;;;;;0.27;0.27;;;;;;;10.29;nan;101163.16;5005832;28;20050;-82
2023/05/25 05:14:03;;;;;;;0.20;0.20;;;;;;;10.37;nan;101168.63;4990317;28;20797;-82
2023/05/25 05:16:32;;;;;;;0.20;0.20;;;;;;;10.44;nan;101163.59;4989083;28;20042;-82
2023/05/25 05:18:58;;;;;;;0.30;0.30;;;;;;;10.53;nan;101162.78;4989007;28;20125;-82
2023/05/25 05:21:23;;;;;;;0.20;0.20;;;;;;;10.65;nan;101169.63;4990106;28;20118;-83
2023/05/25 05:23:49;;;;;;;0.20;0.20;;;;;;;10.66;nan;101170.50;4989092;28;20554;-83
2023/05/25 05:26:14;;;;;;;0.25;0.25;;;;;;;10.71;nan;101170.91;4982979;28;20102;-83
2023/05/25 05:28:39;;;;;;;0.20;0.20;;;;;;;10.83;nan;101169.81;4984228;28;20057;-82
2023/05/25 05:31:06;;;;;;;0.20;0.20;;;;;;;10.94;nan;101160.91;4977652;28;20100;-83
2023/05/25 05:33:31;;;;;;;0.22;0.22;;;;;;;11.08;nan;101157.84;4977253;28;20416;-80
2023/05/25 05:35:56;;;;;;;0.30;0.30;;;;;;;11.24;nan;101159.94;4983685;28;20068;-82
2023/05/25 05:38:22;;;;;;;0.30;0.30;;;;;;;11.41;nan;101164.50;4987806;28;20513;-82
2023/05/25 05:40:47;;;;;;;0.17;0.17;;;;;;;11.71;nan;101167.13;4974202;28;20045;-83
2023/05/25 05:43:13;;;;;;;0.20;0.20;;;;;;;11.98;nan;101161.88;4968740;28;20112;-82
2023/05/25 05:45:39;;;;;;;0.20;0.20;;;;;;;12.25;nan;101169.03;4977130;28;20027;-82
2023/05/25 05:48:08;;;;;;;0.20;0.20;;;;;;;12.53;nan;101161.88;4973712;28;20042;-82
2023/05/25 05:50:34;;;;;;;0.20;0.20;;;;;;;12.88;nan;101164.75;4988894;28;20509;-82
2023/05/25 05:52:59;;;;;;;0.20;0.20;;;;;;;13.28;nan;101163.47;4998109;28;20043;-81
2023/05/25 05:55:25;;;;;;;0.20;0.20;;;;;;;13.56;nan;101159.72;4972971;28;20250;-82
2023/05/25 05:57:50;;;;;;;0.20;0.20;;;;;;;13.82;nan;101164.16;4988607;28;20282;-82
2023/05/25 06:00:16;;;;;;;0.10;0.10;;;;;;;14.26;nan;101163.22;4990905;28;20034;-83
2023/05/25 06:02:42;;;;;;;0.10;0.10;;;;;;;14.63;nan;101169.03;4987603;28;20598;-81
2023/05/25 06:05:07;;;;;;;0.10;0.10;;;;;;;15.06;nan;101159.13;4982337;28;20042;-83
2023/05/25 06:07:34;;;;;;;0.10;0.10;;;;;;;15.10;nan;101167.59;4989275;28;20053;-82
2023/05/25 06:09:59;;;;;;;0.10;0.10;;;;;;;15.14;nan;101165.47;5006232;28;20030;-83
2023/05/25 06:12:25;;;;;;;0.10;0.10;;;;;;;15.29;nan;101167.28;5005901;28;20052;-83
2023/05/25 06:14:50;;;;;;;0.10;0.10;;;;;;;15.48;nan;101163.44;5007829;28;20034;-83
2023/05/25 06:17:16;;;;;;;0.17;0.17;;;;;;;15.77;nan;101174.59;5001106;28;20134;-84
2023/05/25 06:19:41;;;;;;;0.10;0.10;;;;;;;16.03;nan;101179.69;4988433;28;20042;-83
2023/05/25 06:22:07;;;;;;;0.10;0.10;;;;;;;16.19;nan;101182.31;4986530;28;20500;-83
2023/05/25 06:24:32;;;;;;;0.10;0.10;;;;;;;16.33;nan;101178.91;4988094;28;20023;-83
2023/05/25 06:26:57;;;;;;;0.10;0.10;;;;;;;16.55;nan;101187.16;4988159;28;20038;-84
2023/05/25 06:29:23;;;;;;;0.10;0.10;;;;;;;16.86;nan;101194.34;4984955;28;20042;-83
2023/05/25 06:31:48;;;;;;;0.10;0.10;;;;;;;17.14;nan;101184.81;4974699;28;20327;-84
2023/05/25 06:34:13;;;;;;;0.10;0.10;;;;;;;17.35;nan;101191.31;4986161;28;20045;-83
2023/05/25 06:36:39;;;;;;;0.10;0.10;;;;;;;17.42;nan;101194.91;4987370;28;20034;-83
2023/05/25 06:39:04;;;;;;;0.10;0.10;;;;;;;17.68;nan;101188.34;5003063;28;20034;-84
2023/05/25 06:41:29;;;;;;;0.10;0.10;;;;;;;17.81;nan;101191.25;4988482;28;20588;-84
2023/05/25 06:43:55;;;;;;;0.10;0.10;;;;;;;18.27;nan;101191.06;4987624;28;20274;-84
2023/05/25 06:46:20;;;;;;;0.10;0.10;;;;;;;18.31;nan;101194.22;5005698;28;20099;-84
2023/05/25 06:48:46;;;;;;;0.10;0.10;;;;;;;18.15;nan;101196.06;5005548;28;20030;-82
2023/05/25 06:51:11;;;;;;;0.10;0.10;;;;;;;18.20;nan;101188.28;4986269;28;20067;-83
2023/05/25 06:53:38;;;;;;;0.10;0.10;;;;;;;18.29;nan;101194.41;4982449;28;20038;-83
2023/05/25 06:56:03;;;;;;;0.10;0.10;;;;;;;18.75;nan;101193.28;4976406;28;20089;-83
2023/05/25 06:58:29;;;;;;;0.10;0.10;;;;;;;19.13;nan;101188.56;4981150;28;20491;-83
2023/05/25 07:00:54;;;;;;;0.10;0.10;;;;;;;19.38;nan;101191.69;4993100;28;20035;-84
2023/05/25 07:03:19;;;;;;;0.10;0.10;;;;;;;19.65;nan;101189.19;4992668;28;20049;-84
2023/05/25 07:05:45;;;;;;;0.10;0.10;;;;;;;19.47;nan;101198.56;5009624;28;20043;-83
2023/05/25 07:08:10;;;;;;;0.10;0.10;;;;;;;19.83;nan;101197.63;4995048;28;20046;-83
2023/05/25 07:10:35;;;;;;;0.10;0.10;;;;;;;19.88;nan;101199.72;5020845;28;20265;-84
2023/05/25 07:13:00;;;;;;;0.10;0.10;;;;;;;19.96;nan;101196.88;5009968;28;20046;-84
2023/05/25 07:15:26;;;;;;;0.10;0.10;;;;;;;20.13;nan;101202.75;4994414;28;20278;-84
2023/05/25 07:17:51;;;;;;;0.00;0.00;;;;;;;20.57;nan;101197.00;4993986;28;20376;-84
2023/05/25 07:20:16;;;;;;;0.00;0.00;;;;;;;20.99;nan;101204.94;4977510;28;20282;-83
2023/05/25 07:22:42;;;;;;;0.00;0.00;;;;;;;20.82;nan;101198.31;4972586;28;20056;-83
2023/05/25 07:25:08;;;;;;;0.00;0.00;;;;;;;21.03;nan;101202.69;4973267;28;20073;-84
2023/05/25 07:27:34;;;;;;;0.10;0.10;;;;;;;21.05;nan;101197.94;4973426;28;20092;-85
2023/05/25 07:30:00;;;;;;;0.00;0.00;;;;;;;21.09;nan;101205.38;4972414;28;20113;-83
2023/05/25 07:32:25;;;;;;;0.00;0.00;;;;;;;21.40;nan;101196.75;4974559;28;20054;-82
2023/05/25 07:34:50;;;;;;;0.00;0.00;;;;;;;21.30;nan;101201.66;4974754;28;20682;-84
2023/05/25 07:37:16;;;;;;;0.00;0.00;;;;;;;21.37;nan;101194.44;4976991;28;20515;-85
2023/05/25 07:39:41;;;;;;;0.00;0.00;;;;;;;21.72;nan;101194.25;4977879;28;20408;-85
2023/05/25 07:42:06;;;;;;;0.00;0.00;;;;;;;21.77;nan;101197.13;4976467;28;20401;-85
2023/05/25 07:44:31;;;;;;;;;;;;;;;22.29;nan;101204.50;4980827;28;20026;-85
2023/05/25 07:46:57;;;;;;;;;;;;;;;22.67;nan;101201.84;4997698;28;20414;-84
2023/05/25 07:49:22;;;;;;;;;;;;;;;22.93;nan;101205.41;4999387;28;19913;-85
2023/05/25 07:51:47;;;;;;;;;;;;;;;23.20;nan;101208.81;4988320;28;19925;-85
2023/05/25 07:54:12;;;;;;;;;;;;;;;23.50;nan;101207.13;4984763;28;19929;-81
2023/05/25 07:56:37;;;;;;;;;;;;;;;23.48;nan;101203.00;4996777;28;19914;-84
2023/05/25 07:59:03;;;;;;;;;;;;;;;23.38;nan;101214.25;4985298;28;20403;-84
2023/05/25 08:01:28;;;;;;;;;;;;;;;23.51;nan;101214.16;4976280;28;19963;-84
2023/05/25 08:03:53;;;;;;;;;;;;;;;23.59;nan;101204.94;4976378;28;19914;-84
2023/05/25 08:06:19;;;;;;;;;;;;;;;23.71;nan;101205.03;4980232;28;19918;-84
2023/05/25 08:08:45;;;;;;;;;;;;;;;23.79;nan;101206.66;4999302;28;20470;-84
2023/05/25 08:11:10;;;;;;;;;;;;;;;23.58;nan;101199.78;5013408;28;20400;-83
2023/05/25 08:13:36;;;;;;;;;;;;;;;23.70;nan;101203.41;5017391;28;19917;-84
2023/05/25 08:16:01;;;;;;;;;;;;;;;23.89;nan;101207.81;5032710;28;19989;-83
2023/05/25 08:18:27;;;;;;;;;;;;;;;23.70;nan;101211.50;4993630;28;19918;-84
2023/05/25 08:20:52;;;;;;;;;;;;;;;23.81;nan;101207.25;4979511;28;19945;-84
2023/05/25 08:23:17;;;;;;;;;;;;;;;23.78;nan;101207.72;4981272;28;19914;-84
2023/05/25 08:25:42;;;;;;;;;;;;;;;24.29;nan;101207.38;4985336;28;20031;-82
2023/05/25 08:28:07;;;;;;;;;;;;;;;24.46;nan;101209.47;4986775;28;19914;-83
2023/05/25 08:30:32;;;;;;;;;;;;;;;24.58;nan;101211.19;4995391;28;19917;-83
2023/05/25 08:32:58;;;;;;;;;;;;;;;25.00;nan;101215.81;4996317;28;19917;-84
2023/05/25 08:35:23;;;;;;;;;;;;;;;25.18;nan;101210.38;5000818;28;20427;-84
2023/05/25 08:37:48;;;;;;;;;;;;;;;25.18;nan;101209.53;4997633;28;19937;-85
2023/05/25 08:40:15;;;;;;;;;;;;;;;25.20;nan;101213.66;4996277;28;19918;-83
2023/05/25 08:42:44;;;;;;;;;;;;;;;25.45;nan;101211.81;4997705;28;19984;-83
2023/05/25 08:45:12;;;;;;;;;;;;;;;25.49;nan;101213.00;4994959;28;19939;-84
2023/05/25 08:47:40;;;;;;;;;;;;;;;25.38;nan;101210.03;4991885;28;19918;-83
2023/05/25 08:50:07;;;;;;;;;;;;;;;25.24;nan;101213.19;5003164;28;19996;-84
2023/05/25 08:52:33;;;;;;;;;;;;;;;25.80;nan;101211.84;5016913;28;19918;-83
2023/05/25 08:55:01;;;;;;;;;;;;;;;26.37;nan;101216.63;4994433;28;19960;-83
2023/05/25 08:57:44;;;;;;;;;;;;;;;26.52;nan;101216.09;4994178;28;19914;-85
2023/05/25 09:00:10;;;;;;;;;;;;;;;26.48;nan;101215.72;4993839;28;19913;-83
2023/05/25 09:02:51;;;;;;;;;;;;;;;26.35;nan;101210.59;5049847;28;19912;-84
2023/05/25 09:05:17;;;;;;;;;;;;;;;26.31;nan;101209.41;5097286;28;19911;-84
2023/05/25 09:07:43;;;;;;;;;;;;;;;26.56;nan;101201.03;5094410;28;19964;-84
2023/05/25 09:10:09;;;;;;;;;;;;;;;26.78;nan;101206.56;5039191;28;19913;-83
2023/05/25 09:12:35;;;;;;;;;;;;;;;27.18;nan;101203.75;4993185;28;20020;-83
2023/05/25 09:15:00;;;;;;;;;;;;;;;27.68;nan;101208.38;4993352;28;19933;-83
2023/05/25 09:17:26;;;;;;;;;;;;;;;27.37;nan;101212.50;4991808;28;19917;-83
2023/05/25 09:19:51;;;;;;;;;;;;;;;27.59;nan;101217.19;4985153;28;20430;-84
2023/05/25 09:22:16;;;;;;;;;;;;;;;27.94;nan;101208.78;4974753;28;19922;-84
2023/05/25 09:24:43;;;;;;;;;;;;;;;27.74;nan;101207.38;4973238;28;19918;-83
2023/05/25 09:27:12;;;;;;;;;;;;;;;26.68;nan;101209.94;4972919;28;20002;-82
2023/05/25 09:29:37;;;;;;;;;;;;;;;27.13;nan;101211.81;4972542;28;19914;-84
2023/05/25 09:32:05;;;;;;;;;;;;;;;27.48;nan;101213.50;4971214;28;20055;-83
2023/05/25 09:34:34;;;;;;;;;;;;;;;27.68;nan;101205.66;4972827;28;19956;-83
2023/05/25 09:36:59;;;;;;;;;;;;;;;27.51;nan;101210.28;4968555;28;19918;-83
2023/05/25 09:39:25;;;;;;;;;;;;;;;28.07;nan;101211.09;4972949;28;19921;-83
2023/05/25 09:41:51;;;;;;;;;;;;;;;27.58;nan;101202.78;4988069;28;20413;-83
2023/05/25 09:44:16;;;;;;;;;;;;;;;27.75;nan;101198.16;4987211;28;19917;-84
2023/05/25 09:46:43;;;;;;;;;;;;;;;27.40;nan;101206.59;4988743;28;20223;-83
2023/05/25 09:49:09;;;;;;;;;;;;;;;27.31;nan;101198.00;4989696;28;19921;-84
2023/05/25 09:51:35;;;;;;;;;;;;;;;27.97;nan;101202.81;4990484;28;19921;-84
2023/05/25 09:54:00;;;;;;;;;;;;;;;28.25;nan;101210.00;4988223;28;19925;-83
2023/05/25 09:56:27;;;;;;;;;;;;;;;27.68;nan;101218.44;4986754;28;20697;-84
2023/05/25 09:58:52;;;;;;;;;;;;;;;28.29;nan;101208.41;4989395;28;19926;-84
2023/05/25 10:01:18;;;;;;;;;;;;;;;28.41;nan;101202.00;4984751;28;20012;-84
2023/05/25 10:03:49;;;;;;;;;;;;;;;28.61;nan;101209.63;4978082;28;20390;-83
2023/05/25 10:06:15;;;;;;;;;;;;;;;28.70;nan;101208.06;4985933;28;19933;-84
2023/05/25 10:08:42;;;;;;;;;;;;;;;28.58;nan;101208.22;4990872;28;19914;-84
2023/05/25 10:11:09;;;;;;;;;;;;;;;27.95;nan;101207.69;5022861;28;19913;-84
2023/05/25 10:13:35;;;;;;;;;;;;;;;28.25;nan;101206.44;5008853;28;19931;-84
2023/05/25 10:16:00;;;;;;;;;;;;;;;28.80;nan;101216.34;5005047;28;20431;-84
2023/05/25 10:18:27;;;;;;;;;;;;;;;29.23;nan;101220.03;4976502;28;19917;-84
2023/05/25 10:20:56;;;;;;;;;;;;;;;30.01;nan;101222.19;4971609;28;19925;-84
2023/05/25 10:23:21;;;;;;;;;;;;;;;29.96;nan;101225.75;4969393;28;19921;-84
2023/05/25 10:25:49;;;;;;;;;;;;;;;29.99;nan;101221.66;4968773;28;19914;-83
2023/05/25 10:28:27;;;;;;;0.00;0.00;;;;;;;29.57;nan;101217.00;4967896;28;19918;-83
2023/05/25 10:30:57;;;;;;;0.00;0.00;;;;;;;30.36;nan;101212.56;4983165;28;20077;-84
2023/05/25 10:33:23;;;;;;;0.00;0.00;;;;;;;29.99;nan;101216.22;4967436;28;20038;-84
2023/05/25 10:35:49;;;;;;;0.00;0.00;;;;;;;29.81;nan;101212.81;4974484;28;20042;-84
2023/05/25 10:38:15;;;;;;;0.00;0.00;;;;;;;30.14;nan;101221.72;4985414;28;20042;-84
2023/05/25 10:40:45;;;;;;;0.00;0.00;;;;;;;30.36;nan;101218.03;4986887;28;20318;-84
2023/05/25 10:43:10;;;;;;;0.00;0.00;;;;;;;30.30;nan;101213.66;4989675;28;20027;-84
2023/05/25 10:45:35;;;;;;;0.00;0.00;;;;;;;30.22;nan;101206.75;4986328;28;20052;-84
2023/05/25 10:48:02;;;;;;;0.00;0.00;;;;;;;29.80;nan;101216.66;4976943;28;20423;-84
2023/05/25 10:50:34;;;;;;;0.00;0.00;;;;;;;30.23;nan;101209.22;4978034;28;20061;-84
2023/05/25 10:53:06;;;;;;;0.00;0.00;;;;;;;30.84;nan;101202.34;4985980;28;20384;-83
2023/05/25 10:55:51;;;;;;;0.00;0.00;;;;;;;30.94;nan;101198.78;4981007;28;20039;-84
2023/05/25 10:58:17;;;;;;;0.00;0.00;;;;;;;31.55;nan;101206.19;4970931;28;20030;-84
2023/05/25 11:00:55;;;;;;;;;;;;;;;31.31;nan;101207.53;4987578;28;20483;-84
2023/05/25 11:03:39;;;;;;;;;;;;;;;30.81;nan;101208.31;4975755;28;19920;-84
2023/05/25 11:06:04;;;;;;;;;;;;;;;30.54;nan;101203.09;4992626;28;20071;-83
2023/05/25 11:08:47;;;;;;;;;;;;;;;30.08;nan;101198.22;4970951;28;20484;-83
2023/05/25 11:11:12;;;;;;;;;;;;;;;30.73;nan;101204.22;4991281;28;20363;-84
2023/05/25 11:13:38;;;;;;;;;;;;;;;31.33;nan;101199.06;5041137;28;19926;-84
2023/05/25 11:16:06;;;;;;;;;;;;;;;32.12;nan;101196.75;4970560;28;19920;-83
2023/05/25 11:18:40;;;;;;;;;;;;;;;31.49;nan;101200.72;4977031;28;19961;-83
2023/05/25 11:21:29;;;;;;;0.00;0.00;;;;;;;30.99;nan;101190.63;4991999;28;19925;-83
2023/05/25 11:23:55;;;;;;;;;;;;;;;31.27;nan;101201.00;4993686;28;20183;-84
2023/05/25 11:26:21;;;;;;;;;;;;;;;31.85;nan;101208.84;4987576;28;19914;-84
2023/05/25 11:28:46;;;;;;;;;;;;;;;32.01;nan;101197.88;4987004;28;19937;-84
2023/05/25 11:31:12;;;;;;;;;;;;;;;31.91;nan;101195.97;4988160;28;19957;-84
2023/05/25 11:33:37;;;;;;;;;;;;;;;31.94;nan;101184.47;4986602;28;19926;-84
2023/05/25 11:36:03;;;;;;;;;;;;;;;32.29;nan;101191.72;4985631;28;19977;-85
2023/05/25 11:38:30;;;;;;;;;;;;;;;32.01;nan;101182.28;5002834;28;19943;-84
2023/05/25 11:40:55;;;;;;;;;;;;;;;31.91;nan;101182.28;4983281;28;19948;-84
2023/05/25 11:43:22;;;;;;;;;;;;;;;31.55;nan;101179.66;4968740;28;19922;-84
2023/05/25 11:45:54;;;;;;;;;;;;;;;31.33;nan;101177.22;4962543;28;19914;-84
2023/05/25 11:48:19;;;;;;;;;;;;;;;31.48;nan;101168.19;4977178;28;19913;-84
2023/05/25 11:50:44;;;;;;;;;;;;;;;31.70;nan;101176.06;4996257;28;20334;-84
2023/05/25 11:53:10;;;;;;;;;;;;;;;30.84;nan;101167.69;4986448;28;19917;-84
2023/05/25 11:55:39;;;;;;;;;;;;;;;30.77;nan;101160.78;4987028;28;19940;-84
2023/05/25 11:58:05;;;;;;;;;;;;;;;31.32;nan;101172.81;4986336;28;19944;-84
2023/05/25 12:00:30;;;;;;;;;;;;;;;31.85;nan;101184.25;4985179;28;19926;-84
2023/05/25 12:02:56;;;;;;;;;;;;;;;30.81;nan;101170.09;4986477;28;19918;-83
2023/05/25 12:05:23;;;;;;;;;;;;;;;31.07;nan;101171.75;4988418;28;19988;-84